Aérodrome :
LOGIN :

S'inscrire | Disclaimer

   EN    FR    IT 

 










Légende :    VFR   VFR Marginal   IFR   IFR Intensif   IFR Très Intensif
Visi : 
Plafond : 
>= 8 km
>= 3000ft
5 à 8 km
1000 à 3000 ft
1500m à 5 km
500 à 1000 ft
800 à 1500m
200 à 500 ft
< 800m
< 200 ft
Symboles :   Orages  Brouillard  Fortes neiges  Fortes précipitations  Vent > 20 kt
SIGMETs :   Divers  Orages  Givrage  Turbulence  Onde Orograph.  Cendres Volcan.






- Altitude de l'aérodrome : 74 ft
- Code IATA : EIN


EHEH - Eindhoven

DERNIER METAR :
  • 220955Z AUTO 36009KT 330V080 9999 SCT034 BKN220 BKN290 09/01 Q1026 BLU NOSIG

METARs EXPIRÉS :
  • 220925Z AUTO 35007KT 280V010 9999 OVC032 08/M00 Q1027 BLU NOSIG
  • 220855Z AUTO 35006KT 330V070 9999 OVC031 09/00 Q1027 BLU NOSIG
  • 220825Z AUTO 04009KT 340V080 9999 BKN030 BKN230 08/00 Q1026 BLU NOSIG
  • 220755Z AUTO 04006KT 350V090 9999 OVC031 07/M01 Q1026 BLU NOSIG
  • 220725Z AUTO 02006KT 330V060 9999 SCT033 07/M01 Q1026 BLU NOSIG

TAF TAF EHEH
Valide du 22 à 06h jusqu'au 23 à 12h UTC


220517Z 2206/2312 VRB02KT 9999 SCT032
BECMG 2207/2210 01007KT
PROB40
TEMPO 2301/2306 VRB02KT 4000 BR MIFG



MET'MAP, la Météo Aéronautique d'un coup d'oeil ! - Copyright ORBIFLY Décembre 2007 - Disclaimer

ORBIFLY MET'MAP TEAM :

Programmation & Développement : Alexandra Zaïnal
Sur une idée originale de : Baudouin d'Aumeries
Assistance à la programmation : Marc-Olivier Méhu
Soutien technique & logistique : Manuel Goepfert

Contact : metmap@orbifly.com




SOURCES & CREDITS :

   NOAA